Flowery Branch, GA (30542)

01:10 AM EST on februarie 22, 2017 (GMT -0500)
Hideaway Bay Marina | | Change Station

Elev 1109 ft 34.18 °N, 83.94 °W | Updated 5 seconds ago

Cer acoperit
Cer acoperit
59.2 °F
Feels Like 59.2 °F
N
2.9
Vânt variabil Vânt from ENE
Gusts 9.0 mph

astăzi
High -- | Low -- °F
--% Chance of Precip.
Ieri
High -- | Low -- °F
Precip. -- inch
Presiunea 29.96 inch
Vizibilitatea 10.0 mile
Nori Cer acoperit 1200 ft
Punctul de rouă 55 °F
Umiditatea 87%
Precipitaţii 0.00 inch
Adâncimea zăpezii Not available.
7:12 AM 6:26 PM
Semilună în descreştere, 19% visible
METAR KGVL 220553Z AUTO 09008KT 10SM OVC012 14/13 A2998 RMK AO2 SLP145 60001 T01440128 10172 20144 58012
Presiunea 29.96 inch
Vizibilitatea 10.0 mile
Nori Cer acoperit 1200 ft
Punctul de rouă 55 °F
Umiditatea 87%
Precipitaţii 0.00 inch
Adâncimea zăpezii Not available.
7:12 AM 6:26 PM
Semilună în descreştere, 19% visible
METAR KGVL 220553Z AUTO 09008KT 10SM OVC012 14/13 A2998 RMK AO2 SLP145 60001 T01440128 10172 20144 58012

Get Your Daily Forecast Email!

Thanks for signing up!

Be on the lookout for a verification email in your inbox.

You'll start receiving the daily forecast at 8 AM.

×

10-Day Weather Forecast

Almanac

Astronomie

Feb. 22, 2017 Răsărit Apus
Timpul Actual
Crepusculul Civil
Crepusculul nautic
Răsărit Astronomic
Luna
Durata zilei lumină
Lungimea zilei
Tomorrow will be .
, % of the Moon is Illuminated

Extremele de azi

State Highs State Lows

Community

WunderPhotos

Upload Photos

1,962,540 photos uploaded!

WunderBlog® & News

Nearby

Calitatea aerului

  Calitatea aerului Index de calitate a aerului Poluat
Not available.

Adâncimea zapezii

Station Depth Elevation

Earthquake Activity

Oraş Distance Mag. Time & Date
Minimum magnitude displayed is 2.5.

Coastal Water Temperatures

Locul Temperatura

Stations

Nearby Weather Stations

Locaţia staţiei Temp Vânt rece Punctul de rouă Umiditatea Vânt Precip. Elev Actualizare Type
                   

Watches & Warnings

There are currently no watches in effect.